createdAt,value
2019-03-25T00:01:52.795Z,51.60
2019-03-25T00:06:57.037Z,51.50
2019-03-25T00:12:01.414Z,51.90
2019-03-25T00:17:05.626Z,51.90
2019-03-25T00:22:09.960Z,52.40
2019-03-25T00:27:14.168Z,52.50
2019-03-25T00:32:18.452Z,52.20
2019-03-25T00:37:22.657Z,53.00
2019-03-25T00:42:26.981Z,52.60
2019-03-25T00:47:31.204Z,52.40
2019-03-25T00:52:35.440Z,52.40
2019-03-25T00:57:39.770Z,52.40
2019-03-25T01:02:43.968Z,52.30
2019-03-25T01:07:48.173Z,52.20
2019-03-25T01:12:52.598Z,52.20
2019-03-25T01:17:56.914Z,52.20
2019-03-25T01:23:01.164Z,52.00
2019-03-25T01:28:05.444Z,52.20
2019-03-25T01:33:09.730Z,52.20
2019-03-25T01:38:13.940Z,51.60
2019-03-25T01:43:18.216Z,52.70
2019-03-25T01:48:22.616Z,52.00
2019-03-25T01:53:26.812Z,52.10
2019-03-25T01:58:31.141Z,51.90
2019-03-25T02:03:35.429Z,51.70
2019-03-25T02:08:39.681Z,51.70
2019-03-25T02:13:44.018Z,51.70
2019-03-25T02:18:48.241Z,51.60
2019-03-25T02:23:52.452Z,51.60
2019-03-25T02:28:56.700Z,51.60
2019-03-25T02:34:00.978Z,51.50
2019-03-25T02:39:24.236Z,51.30
2019-03-25T02:44:28.517Z,51.20
2019-03-25T02:49:32.724Z,51.10
2019-03-25T02:54:36.905Z,51.10
2019-03-25T02:59:41.151Z,51.10
2019-03-25T03:04:45.434Z,51.80
2019-03-25T03:09:49.772Z,51.90
2019-03-25T03:14:54.052Z,51.80
2019-03-25T03:19:58.608Z,51.80
2019-03-25T03:25:03.136Z,51.40
2019-03-25T03:30:07.523Z,51.60
2019-03-25T03:35:11.968Z,51.60
2019-03-25T03:40:16.558Z,51.30
2019-03-25T03:45:20.832Z,51.70
2019-03-25T03:50:26.725Z,51.10
2019-03-25T03:55:31.243Z,51.40
2019-03-25T04:00:35.856Z,51.20
2019-03-25T04:05:59.177Z,51.30
2019-03-25T04:11:03.521Z,50.90
2019-03-25T04:16:07.792Z,51.20
2019-03-25T04:21:12.049Z,50.90
2019-03-25T04:26:27.761Z,51.00
2019-03-25T04:31:22.238Z,51.00
2019-03-25T04:36:26.494Z,50.90
2019-03-25T04:41:30.814Z,50.70
2019-03-25T04:46:35.035Z,50.70
2019-03-25T04:51:39.273Z,50.50
2019-03-25T04:56:43.817Z,50.40
2019-03-25T05:01:48.113Z,50.70
2019-03-25T05:06:52.349Z,50.40
2019-03-25T05:11:56.671Z,50.30
2019-03-25T05:17:01.013Z,50.30
2019-03-25T05:22:05.315Z,50.00
2019-03-25T05:27:09.549Z,50.50
2019-03-25T05:32:13.846Z,50.10
2019-03-25T05:37:18.223Z,50.00
2019-03-25T05:42:22.497Z,50.00
2019-03-25T05:47:26.765Z,50.00
2019-03-25T05:52:31.125Z,49.90
2019-03-25T05:57:35.361Z,50.00
2019-03-25T06:02:39.671Z,49.70
2019-03-25T06:07:44.025Z,49.90
2019-03-25T06:12:48.238Z,49.50
2019-03-25T06:17:52.525Z,49.70
2019-03-25T06:22:56.848Z,49.60
2019-03-25T06:28:01.221Z,49.60
2019-03-25T06:33:12.443Z,49.50
2019-03-25T06:38:12.592Z,49.40
2019-03-25T06:43:16.797Z,49.40
2019-03-25T06:48:21.018Z,49.20
2019-03-25T06:53:25.230Z,49.10
2019-03-25T06:58:29.589Z,49.10
2019-03-25T07:03:33.890Z,48.90
2019-03-25T07:08:38.157Z,49.00
2019-03-25T07:13:42.493Z,48.90
2019-03-25T07:18:46.886Z,49.00
2019-03-25T07:23:51.254Z,48.80
2019-03-25T07:28:55.614Z,48.70
2019-03-25T07:33:59.892Z,48.70
2019-03-25T07:39:05.429Z,48.80
2019-03-25T07:44:09.694Z,48.80
2019-03-25T07:49:13.967Z,48.80
2019-03-25T07:54:18.239Z,48.70
2019-03-25T07:59:22.592Z,48.60
2019-03-25T08:04:26.874Z,48.70
2019-03-25T08:09:31.398Z,48.40
2019-03-25T08:14:35.842Z,48.40
2019-03-25T08:19:40.144Z,48.30
2019-03-25T08:24:45.269Z,48.30
2019-03-25T08:29:49.491Z,48.30
2019-03-25T08:34:53.875Z,48.20
2019-03-25T08:39:58.088Z,48.20
2019-03-25T08:45:02.793Z,48.60
2019-03-25T08:50:08.039Z,48.30
2019-03-25T08:55:12.758Z,48.30
2019-03-25T09:00:17.145Z,48.40
2019-03-25T09:05:21.524Z,48.10
2019-03-25T09:10:25.862Z,48.00
2019-03-25T09:15:30.077Z,48.20
2019-03-25T09:20:34.364Z,50.70
2019-03-25T09:25:38.770Z,50.20
2019-03-25T09:31:18.531Z,50.60
2019-03-25T09:36:22.976Z,50.80
2019-03-25T09:41:27.709Z,50.30
2019-03-25T09:46:32.454Z,50.60
2019-03-25T09:51:36.814Z,50.80
2019-03-25T09:56:41.126Z,50.30
2019-03-25T10:01:45.466Z,51.70
2019-03-25T10:06:49.648Z,55.00
2019-03-25T10:11:53.916Z,54.30
2019-03-25T10:16:58.250Z,54.70
2019-03-25T10:22:02.593Z,54.00
2019-03-25T10:27:06.830Z,53.10
2019-03-25T10:32:11.104Z,52.80
2019-03-25T10:37:15.479Z,52.40
2019-03-25T10:42:19.926Z,52.50
2019-03-25T10:47:24.238Z,50.30
2019-03-25T10:52:29.909Z,50.90
2019-03-25T10:57:34.325Z,50.80
2019-03-25T11:02:38.751Z,49.90
2019-03-25T11:12:47.442Z,51.60
2019-03-25T11:17:51.856Z,50.00
2019-03-25T11:22:56.162Z,53.50
2019-03-25T11:28:00.478Z,55.30
2019-03-25T11:33:04.772Z,55.30
2019-03-25T11:38:09.225Z,52.50
2019-03-25T11:43:16.050Z,52.70
2019-03-25T11:48:20.365Z,52.50
2019-03-25T11:53:24.736Z,52.40
2019-03-25T11:58:29.031Z,52.20
2019-03-25T12:03:33.350Z,52.20
2019-03-25T12:08:37.759Z,52.50
2019-03-25T12:13:42.191Z,52.20
2019-03-25T12:18:48.360Z,52.30
2019-03-25T12:23:53.881Z,52.40
2019-03-25T12:28:59.870Z,52.30
2019-03-25T12:34:04.221Z,52.40
2019-03-25T12:39:08.687Z,53.10
2019-03-25T12:44:12.976Z,53.30
2019-03-25T12:49:17.362Z,52.80
2019-03-25T12:54:21.789Z,52.50
2019-03-25T12:59:26.186Z,52.40
2019-03-25T13:04:30.601Z,52.40
2019-03-25T13:09:35.411Z,51.70
2019-03-25T13:14:39.671Z,51.70
2019-03-25T13:19:44.069Z,51.80
2019-03-25T13:24:48.695Z,51.50
2019-03-25T13:29:53.895Z,50.80
2019-03-25T13:34:58.177Z,51.10
2019-03-25T13:40:03.506Z,51.10
2019-03-25T13:45:07.841Z,50.50
2019-03-25T13:50:12.395Z,51.30
2019-03-25T13:55:16.717Z,51.00
2019-03-25T14:00:51.021Z,50.80
2019-03-25T14:05:55.317Z,50.60
2019-03-25T14:10:59.740Z,50.20
2019-03-25T14:16:04.039Z,50.10
2019-03-25T14:21:09.494Z,50.30
2019-03-25T14:26:14.217Z,50.50
2019-03-25T14:31:19.197Z,50.30
2019-03-25T14:36:23.548Z,50.30
2019-03-25T14:41:46.949Z,50.70
2019-03-25T14:46:52.526Z,50.80
2019-03-25T14:51:56.974Z,50.80
2019-03-25T14:57:01.318Z,50.60
2019-03-25T15:02:05.827Z,50.50
2019-03-25T15:07:10.392Z,53.90
2019-03-25T15:12:14.712Z,53.70
2019-03-25T15:17:19.108Z,52.50
2019-03-25T15:22:24.838Z,52.40
2019-03-25T15:27:30.561Z,52.70
2019-03-25T15:32:36.139Z,52.00
2019-03-25T15:37:40.782Z,51.80
2019-03-25T15:42:46.342Z,51.70
2019-03-25T15:47:50.704Z,51.80
2019-03-25T15:52:54.948Z,51.20
2019-03-25T15:57:59.672Z,51.50
2019-03-25T16:03:04.068Z,51.20
2019-03-25T16:08:08.831Z,51.20
2019-03-25T16:13:13.387Z,51.30
2019-03-25T16:18:37.730Z,51.10
2019-03-25T16:23:42.194Z,51.00
2019-03-25T16:28:46.538Z,51.00
2019-03-25T16:33:50.944Z,51.00
2019-03-25T16:38:55.174Z,50.60
2019-03-25T16:43:59.537Z,50.50
2019-03-25T16:49:03.895Z,50.30
2019-03-25T16:54:08.424Z,50.40
2019-03-25T16:59:12.681Z,50.30
2019-03-25T17:04:16.940Z,50.10
2019-03-25T17:09:21.188Z,50.10
2019-03-25T17:14:25.502Z,49.90
2019-03-25T17:19:29.816Z,50.30
2019-03-25T17:24:34.146Z,50.00
2019-03-25T17:29:38.599Z,49.80
2019-03-25T17:34:43.063Z,49.70
2019-03-25T17:39:47.447Z,49.60
2019-03-25T17:44:51.816Z,49.70
2019-03-25T17:50:07.299Z,49.60
2019-03-25T17:55:11.587Z,49.50
2019-03-25T18:00:17.623Z,49.70
2019-03-25T18:05:22.088Z,49.30
2019-03-25T18:10:26.443Z,49.20
2019-03-25T18:15:30.719Z,49.70
2019-03-25T18:20:35.216Z,49.20
2019-03-25T18:25:39.458Z,49.70
2019-03-25T18:30:43.783Z,49.30
2019-03-25T18:35:50.945Z,49.20
2019-03-25T18:40:57.521Z,49.20
2019-03-25T18:46:02.533Z,49.10
2019-03-25T18:51:12.754Z,49.10
2019-03-25T18:56:19.858Z,49.00
2019-03-25T19:01:39.805Z,49.30
2019-03-25T19:07:03.145Z,49.20
2019-03-25T19:12:07.360Z,49.30
2019-03-25T19:17:12.833Z,50.20
2019-03-25T19:22:17.156Z,48.80
2019-03-25T19:27:21.663Z,48.80
2019-03-25T19:32:27.294Z,49.20
2019-03-25T19:37:31.891Z,49.00
2019-03-25T19:42:36.945Z,49.40
2019-03-25T19:47:41.527Z,49.40
2019-03-25T19:52:45.942Z,53.00
2019-03-25T19:57:50.359Z,54.30
2019-03-25T20:02:56.199Z,54.50
2019-03-25T20:08:03.159Z,53.00
2019-03-25T20:13:07.724Z,50.60
2019-03-25T20:18:12.373Z,49.90
2019-03-25T20:23:16.929Z,50.10
2019-03-25T20:28:21.267Z,49.80
2019-03-25T20:33:25.649Z,50.30
2019-03-25T20:38:30.211Z,49.70
2019-03-25T20:43:34.525Z,49.90
2019-03-25T20:48:38.952Z,49.60
2019-03-25T20:53:43.447Z,49.60
2019-03-25T20:59:06.837Z,49.60
2019-03-25T21:04:11.317Z,50.10
2019-03-25T21:09:16.026Z,49.40
2019-03-25T21:14:20.390Z,49.30
2019-03-25T21:19:24.664Z,49.40
2019-03-25T21:24:28.944Z,49.40
2019-03-25T21:29:33.305Z,49.30
2019-03-25T21:34:37.569Z,48.90
2019-03-25T21:39:41.950Z,49.30
2019-03-25T21:44:46.350Z,54.10
2019-03-25T21:49:50.780Z,54.60
2019-03-25T21:54:55.212Z,54.20
2019-03-25T21:59:59.630Z,50.00
2019-03-25T22:05:04.379Z,52.50
2019-03-25T22:10:09.970Z,52.30
2019-03-25T22:15:14.407Z,51.40
2019-03-25T22:20:18.782Z,50.70
2019-03-25T22:25:23.140Z,52.20
2019-03-25T22:30:27.690Z,51.10
2019-03-25T22:35:32.224Z,50.30
2019-03-25T22:40:36.941Z,49.80
2019-03-25T22:45:41.730Z,49.20
2019-03-25T22:50:46.089Z,49.30
2019-03-25T22:55:50.436Z,49.50
2019-03-25T23:00:54.950Z,49.60
2019-03-25T23:05:59.317Z,50.00
2019-03-25T23:11:03.811Z,50.00
2019-03-25T23:16:08.037Z,49.90
2019-03-25T23:21:12.599Z,50.30
2019-03-25T23:26:16.816Z,50.00
2019-03-25T23:31:21.218Z,50.10
2019-03-25T23:36:25.486Z,49.80
2019-03-25T23:41:29.823Z,49.80
2019-03-25T23:46:34.238Z,49.80
2019-03-25T23:51:38.494Z,49.60
2019-03-25T23:56:42.896Z,49.80
